createdAt,value
2017-11-16T00:00:56.985Z,27.30
2017-11-16T00:03:24.456Z,27.87
2017-11-16T00:05:51.894Z,30.60
2017-11-16T00:08:19.450Z,28.70
2017-11-16T00:10:47.693Z,26.37
2017-11-16T00:13:15.244Z,27.55
2017-11-16T00:15:42.681Z,30.60
2017-11-16T00:18:10.239Z,36.58
2017-11-16T00:20:38.457Z,28.38
2017-11-16T00:23:05.914Z,28.95
2017-11-16T00:25:33.380Z,29.77
2017-11-16T00:28:00.818Z,28.95
2017-11-16T00:30:28.250Z,31.17
2017-11-16T00:32:55.773Z,28.95
2017-11-16T00:35:23.189Z,29.00
2017-11-16T00:37:50.697Z,29.95
2017-11-16T00:40:18.139Z,28.20
2017-11-16T00:42:45.573Z,27.48
2017-11-16T00:45:13.023Z,29.05
2017-11-16T00:47:40.485Z,28.90
2017-11-16T00:50:08.012Z,29.15
2017-11-16T00:52:35.454Z,27.05
2017-11-16T00:55:02.904Z,28.87
2017-11-16T00:57:30.338Z,27.48
2017-11-16T00:59:57.773Z,27.77
2017-11-16T01:02:25.219Z,27.33
2017-11-16T01:04:52.646Z,28.62
2017-11-16T01:07:20.088Z,29.00
2017-11-16T01:09:47.534Z,26.05
2017-11-16T01:12:14.986Z,27.35
2017-11-16T01:14:42.498Z,26.33
2017-11-16T01:17:09.946Z,28.05
2017-11-16T01:19:37.419Z,29.20
2017-11-16T01:22:05.637Z,28.15
2017-11-16T01:24:33.080Z,27.25
2017-11-16T01:27:00.534Z,27.55
2017-11-16T01:29:27.986Z,28.58
2017-11-16T01:31:55.439Z,29.33
2017-11-16T01:34:22.877Z,27.10
2017-11-16T01:36:50.311Z,30.08
2017-11-16T01:39:17.761Z,27.40
2017-11-16T01:41:45.210Z,28.48
2017-11-16T01:44:12.704Z,28.62
2017-11-16T01:46:40.136Z,30.12
2017-11-16T01:49:08.395Z,33.42
2017-11-16T01:51:36.585Z,32.63
2017-11-16T01:54:04.104Z,29.08
2017-11-16T01:56:31.575Z,29.67
2017-11-16T01:58:59.046Z,28.65
2017-11-16T02:01:26.477Z,30.65
2017-11-16T02:03:53.917Z,31.62
2017-11-16T02:06:21.356Z,29.52
2017-11-16T02:08:48.805Z,30.90
2017-11-16T02:11:16.276Z,32.10
2017-11-16T02:13:43.730Z,33.13
2017-11-16T02:16:11.157Z,30.75
2017-11-16T02:18:39.384Z,29.42
2017-11-16T02:21:06.839Z,30.88
2017-11-16T02:23:34.273Z,30.50
2017-11-16T02:26:01.714Z,31.25
2017-11-16T02:28:29.153Z,29.58
2017-11-16T02:30:56.611Z,28.15
2017-11-16T02:33:24.055Z,29.65
2017-11-16T02:35:51.513Z,28.05
2017-11-16T02:38:18.940Z,28.45
2017-11-16T02:40:46.534Z,28.52
2017-11-16T02:43:13.978Z,30.92
2017-11-16T02:45:42.206Z,29.80
2017-11-16T02:48:09.659Z,29.23
2017-11-16T02:50:37.118Z,33.95
2017-11-16T02:53:05.313Z,33.55
2017-11-16T02:55:32.768Z,31.48
2017-11-16T02:58:00.206Z,30.70
2017-11-16T03:00:27.665Z,31.00
2017-11-16T03:02:55.149Z,29.27
2017-11-16T03:05:22.754Z,29.10
2017-11-16T03:07:51.173Z,29.98
2017-11-16T03:10:18.617Z,25.30
2017-11-16T03:12:46.090Z,24.70
2017-11-16T03:15:13.556Z,25.85
2017-11-16T03:17:40.998Z,24.63
2017-11-16T03:20:09.964Z,17.40
2017-11-16T03:22:37.403Z,24.83
2017-11-16T03:25:04.829Z,24.98
2017-11-16T03:27:32.282Z,24.12
2017-11-16T03:29:59.757Z,24.20
2017-11-16T04:54:24.349Z,16.75
2017-11-16T04:56:51.803Z,18.52
2017-11-16T04:59:19.249Z,16.12
2017-11-16T05:01:46.688Z,20.85
2017-11-16T05:04:14.152Z,18.77
2017-11-16T05:06:41.750Z,19.80
2017-11-16T05:09:10.073Z,16.15
2017-11-16T05:11:37.512Z,17.87
2017-11-16T05:14:04.962Z,19.23
2017-11-16T05:16:32.402Z,17.15
2017-11-16T05:18:59.854Z,19.05
2017-11-16T05:21:27.346Z,18.95
2017-11-16T05:23:54.785Z,17.70
2017-11-16T05:26:22.220Z,18.48
2017-11-16T05:28:49.797Z,16.35
2017-11-16T05:31:17.266Z,18.25
2017-11-16T05:33:44.810Z,18.92
2017-11-16T05:36:12.273Z,18.33
2017-11-16T05:38:40.492Z,18.08
2017-11-16T05:41:07.921Z,18.33
2017-11-16T05:43:35.382Z,17.90
2017-11-16T05:46:02.820Z,19.40
2017-11-16T05:48:30.258Z,18.90
2017-11-16T05:50:57.697Z,19.30
2017-11-16T05:53:25.163Z,14.98
2017-11-16T05:55:52.614Z,24.17
2017-11-16T05:58:20.190Z,17.83
2017-11-16T06:00:48.429Z,17.95
2017-11-16T06:03:15.973Z,19.33
2017-11-16T06:05:43.633Z,17.60
2017-11-16T06:08:11.843Z,19.15
2017-11-16T06:10:39.280Z,22.55
2017-11-16T06:13:06.719Z,19.67
2017-11-16T06:15:34.183Z,19.60
2017-11-16T06:18:01.633Z,18.52
2017-11-16T06:20:29.105Z,18.70
2017-11-16T06:22:56.548Z,19.02
2017-11-16T06:25:23.972Z,19.33
2017-11-16T06:27:51.509Z,21.55
2017-11-16T06:30:18.933Z,18.98
2017-11-16T06:32:46.497Z,22.13
2017-11-16T06:35:13.941Z,19.52
2017-11-16T06:37:41.396Z,19.87
2017-11-16T06:40:08.818Z,19.17
2017-11-16T06:42:36.262Z,21.45
2017-11-16T06:45:03.729Z,18.05
2017-11-16T06:47:31.173Z,19.02
2017-11-16T06:49:58.612Z,20.45
2017-11-16T06:52:26.072Z,19.77
2017-11-16T06:54:54.272Z,20.00
2017-11-16T06:57:21.705Z,20.35
2017-11-16T06:59:49.167Z,21.02
2017-11-16T07:02:16.594Z,18.33
2017-11-16T07:04:44.043Z,22.42
2017-11-16T07:07:11.501Z,19.00
2017-11-16T07:09:38.926Z,20.20
2017-11-16T07:12:06.370Z,21.23
2017-11-16T07:14:33.801Z,23.70
2017-11-16T07:17:01.269Z,26.27
2017-11-16T07:19:28.700Z,26.02
2017-11-16T07:21:56.157Z,21.55
2017-11-16T07:24:23.613Z,22.20
2017-11-16T07:26:51.048Z,21.75
2017-11-16T07:29:18.520Z,19.92
2017-11-16T07:31:46.041Z,19.92
2017-11-16T07:34:13.481Z,21.40
2017-11-16T07:36:41.040Z,20.67
2017-11-16T07:39:08.481Z,23.50
2017-11-16T07:41:35.936Z,22.65
2017-11-16T07:44:04.193Z,22.45
2017-11-16T07:46:31.650Z,20.37
2017-11-16T07:49:00.247Z,23.35
2017-11-16T07:51:27.723Z,21.55
2017-11-16T07:53:55.170Z,19.85
2017-11-16T07:56:22.621Z,23.23
2017-11-16T07:58:50.182Z,18.48
2017-11-16T08:01:17.617Z,19.48
2017-11-16T08:03:45.163Z,17.70
2017-11-16T08:06:12.593Z,19.00
2017-11-16T08:08:40.144Z,19.80
2017-11-16T08:11:07.587Z,18.62
2017-11-16T08:13:35.834Z,20.45
2017-11-16T08:16:03.381Z,19.80
2017-11-16T08:18:30.837Z,17.62
2017-11-16T08:20:58.298Z,22.23
2017-11-16T08:23:26.533Z,17.15
2017-11-16T08:25:53.981Z,18.95
2017-11-16T08:28:21.404Z,17.75
2017-11-16T08:30:49.676Z,18.90
2017-11-16T08:33:17.149Z,17.15
2017-11-16T08:35:45.348Z,15.52
2017-11-16T08:38:12.839Z,15.90
2017-11-16T08:40:40.301Z,18.50
2017-11-16T08:43:07.729Z,16.15
2017-11-16T08:45:35.174Z,18.45
2017-11-16T08:48:03.421Z,18.52
2017-11-16T08:50:30.977Z,17.42
2017-11-16T08:52:59.237Z,17.17
2017-11-16T08:55:27.448Z,17.77
2017-11-16T08:57:54.956Z,16.27
2017-11-16T09:00:23.162Z,16.48
2017-11-16T09:02:50.601Z,18.10
2017-11-16T09:05:18.053Z,14.85
2017-11-16T09:07:45.653Z,22.70
2017-11-16T09:10:13.880Z,17.17
2017-11-16T09:12:41.306Z,17.60
2017-11-16T09:15:08.742Z,17.62
2017-11-16T09:17:36.209Z,20.37
2017-11-16T09:20:03.936Z,17.58
2017-11-16T09:22:31.377Z,18.58
2017-11-16T09:24:58.823Z,17.95
2017-11-16T09:27:26.266Z,16.23
2017-11-16T09:29:53.693Z,18.08
2017-11-16T09:32:21.137Z,16.55
2017-11-16T09:34:48.597Z,16.90
2017-11-16T09:37:16.037Z,17.73
2017-11-16T09:39:43.471Z,17.02
2017-11-16T09:42:10.920Z,19.45
2017-11-16T09:44:38.352Z,17.80
2017-11-16T09:47:05.785Z,19.62
2017-11-16T09:49:33.227Z,18.48
2017-11-16T09:52:00.670Z,17.55
2017-11-16T09:54:28.108Z,19.15
2017-11-16T09:56:55.554Z,20.73
2017-11-16T09:59:22.978Z,19.10
2017-11-16T10:01:50.493Z,18.83
2017-11-16T10:04:18.032Z,17.77
2017-11-16T10:06:45.513Z,18.12
2017-11-16T10:09:12.957Z,18.08
2017-11-16T10:11:40.515Z,20.60
2017-11-16T10:14:07.990Z,18.23
2017-11-16T10:16:35.429Z,21.92
2017-11-16T10:19:02.885Z,19.42
2017-11-16T10:21:30.335Z,19.75
2017-11-16T10:23:57.880Z,20.67
2017-11-16T10:26:25.415Z,20.75
2017-11-16T10:28:52.881Z,20.08
2017-11-16T10:31:20.305Z,22.13
2017-11-16T10:33:47.821Z,20.25
2017-11-16T10:36:15.333Z,22.13
2017-11-16T10:38:42.773Z,21.08
2017-11-16T10:41:10.208Z,23.67
2017-11-16T10:43:38.435Z,22.23
2017-11-16T10:46:05.935Z,22.85
2017-11-16T10:48:34.313Z,19.20
2017-11-16T10:51:01.767Z,21.70
2017-11-16T10:53:29.197Z,19.83
2017-11-16T10:55:56.635Z,20.90
2017-11-16T10:58:24.070Z,21.92
2017-11-16T11:00:51.505Z,20.52
2017-11-16T11:03:18.936Z,21.30
2017-11-16T11:05:47.151Z,19.70
2017-11-16T11:08:14.589Z,20.45
2017-11-16T11:10:42.035Z,22.15
2017-11-16T11:13:09.472Z,21.02
2017-11-16T11:15:36.945Z,22.42
2017-11-16T11:18:04.422Z,21.23
2017-11-16T11:20:31.872Z,23.30
2017-11-16T11:22:59.323Z,21.58
2017-11-16T11:25:26.758Z,22.05
2017-11-16T11:27:54.184Z,23.65
2017-11-16T11:30:21.626Z,22.60
2017-11-16T11:32:49.071Z,22.17
2017-11-16T11:35:18.107Z,22.13
2017-11-16T11:37:45.536Z,19.62
2017-11-16T11:40:12.987Z,21.70
2017-11-16T11:42:40.487Z,21.87
2017-11-16T11:45:07.924Z,23.65
2017-11-16T11:47:35.349Z,21.83
2017-11-16T11:50:02.870Z,22.80
2017-11-16T11:52:30.341Z,22.95
2017-11-16T11:54:58.701Z,22.02
2017-11-16T11:57:26.905Z,20.37
2017-11-16T11:59:54.337Z,19.62
2017-11-16T12:02:21.790Z,20.73
2017-11-16T12:04:49.227Z,21.90
2017-11-16T12:07:16.675Z,19.35
2017-11-16T12:09:44.118Z,21.90
2017-11-16T12:12:11.557Z,20.88
2017-11-16T12:14:39.034Z,20.55
2017-11-16T12:17:06.484Z,23.40
2017-11-16T12:19:33.922Z,23.00
2017-11-16T12:22:01.414Z,20.60
2017-11-16T12:24:28.880Z,20.02
2017-11-16T12:26:56.310Z,20.83
2017-11-16T12:29:23.746Z,19.67
2017-11-16T12:31:51.191Z,21.50
2017-11-16T12:34:18.634Z,21.27
2017-11-16T12:36:46.093Z,22.48
2017-11-16T12:39:13.519Z,21.52
2017-11-16T12:41:40.957Z,20.42
2017-11-16T12:44:08.409Z,19.02
2017-11-16T12:46:35.857Z,21.37
2017-11-16T12:49:03.294Z,21.52
2017-11-16T12:51:30.753Z,20.85
2017-11-16T12:53:58.189Z,19.90
2017-11-16T12:56:25.631Z,21.62
2017-11-16T12:58:53.070Z,21.17
2017-11-16T13:01:20.574Z,20.30
2017-11-16T13:03:48.790Z,20.27
2017-11-16T13:06:16.225Z,20.23
2017-11-16T13:08:43.681Z,21.00
2017-11-16T13:11:11.122Z,20.25
2017-11-16T13:13:38.561Z,21.60
2017-11-16T13:16:06.033Z,19.55
2017-11-16T13:18:33.490Z,20.98
2017-11-16T13:21:01.697Z,21.52
2017-11-16T13:23:29.141Z,24.45
2017-11-16T13:25:56.597Z,20.85
2017-11-16T13:28:25.077Z,21.85
2017-11-16T13:30:52.524Z,21.00
2017-11-16T13:33:19.961Z,24.40
2017-11-16T13:35:47.396Z,19.12
2017-11-16T13:38:14.857Z,20.10
2017-11-16T13:40:43.081Z,20.37
2017-11-16T13:43:10.521Z,19.77
2017-11-16T13:45:38.003Z,17.92
2017-11-16T13:48:05.564Z,17.77
2017-11-16T13:50:33.765Z,18.77
2017-11-16T13:53:01.201Z,21.25
2017-11-16T13:55:28.726Z,19.92
2017-11-16T13:57:56.158Z,21.17
2017-11-16T14:00:23.765Z,18.67
2017-11-16T14:02:51.413Z,19.62
2017-11-16T14:05:18.865Z,18.75
2017-11-16T14:07:46.396Z,18.37
2017-11-16T14:10:13.836Z,17.50
2017-11-16T14:12:41.297Z,18.80
2017-11-16T14:15:08.752Z,19.58
2017-11-16T14:17:36.983Z,19.48
2017-11-16T14:20:04.523Z,23.35
2017-11-16T14:22:31.953Z,19.37
2017-11-16T14:24:59.400Z,20.02
2017-11-16T14:27:26.834Z,16.58
2017-11-16T14:29:54.282Z,17.02
2017-11-16T14:32:21.709Z,18.65
2017-11-16T14:34:49.190Z,16.83
2017-11-16T14:37:16.634Z,17.98
2017-11-16T14:39:44.181Z,19.27
2017-11-16T14:42:11.609Z,17.10
2017-11-16T14:44:39.199Z,16.42
2017-11-16T14:47:07.402Z,16.17
2017-11-16T14:49:34.853Z,15.05
2017-11-16T14:52:03.342Z,17.75
2017-11-16T14:54:30.785Z,18.67
2017-11-16T14:56:58.239Z,17.35
2017-11-16T14:59:26.433Z,18.25
2017-11-16T15:01:53.928Z,16.70
2017-11-16T15:04:21.362Z,17.20
2017-11-16T15:06:49.865Z,17.83
2017-11-16T15:09:18.102Z,17.55
2017-11-16T15:11:45.541Z,18.02
2017-11-16T15:14:13.009Z,16.75
2017-11-16T15:16:40.628Z,17.67
2017-11-16T15:19:08.078Z,18.10
2017-11-16T15:21:35.695Z,17.35
2017-11-16T15:24:03.138Z,16.23
2017-11-16T15:26:30.594Z,17.45
2017-11-16T15:28:58.041Z,17.60
2017-11-16T15:31:25.491Z,18.75
2017-11-16T15:33:53.718Z,17.12
2017-11-16T15:36:21.167Z,18.48
2017-11-16T15:38:48.593Z,20.23
2017-11-16T15:41:16.080Z,17.75
2017-11-16T15:43:43.597Z,18.62
2017-11-16T15:46:11.074Z,18.95
2017-11-16T15:48:38.610Z,19.42
2017-11-16T15:51:06.063Z,18.45
2017-11-16T15:53:33.599Z,18.33
2017-11-16T15:56:01.035Z,15.52
2017-11-16T15:58:28.493Z,17.55
2017-11-16T16:00:55.928Z,15.68
2017-11-16T16:03:23.393Z,17.10
2017-11-16T16:05:51.598Z,15.70
2017-11-16T16:08:19.041Z,18.40
2017-11-16T16:10:47.245Z,17.08
2017-11-16T16:13:14.689Z,18.20
2017-11-16T16:15:42.228Z,18.02
2017-11-16T16:18:09.673Z,18.62
2017-11-16T16:20:37.098Z,18.33
2017-11-16T16:23:04.548Z,18.30
2017-11-16T16:25:32.009Z,18.75
2017-11-16T16:28:00.226Z,18.67
2017-11-16T16:30:27.657Z,18.20
2017-11-16T16:32:55.137Z,16.80
2017-11-16T16:35:22.557Z,19.75
2017-11-16T16:37:50.022Z,17.55
2017-11-16T16:40:17.465Z,17.80
2017-11-16T16:42:44.896Z,18.40
2017-11-16T16:45:12.342Z,15.82
2017-11-16T16:47:39.776Z,20.55
2017-11-16T16:50:07.238Z,19.52
2017-11-16T16:52:34.685Z,19.73
2017-11-16T16:55:02.126Z,18.40
2017-11-16T16:57:29.559Z,17.42
2017-11-16T16:59:57.021Z,17.75
2017-11-16T17:02:25.251Z,19.83
2017-11-16T17:04:52.728Z,18.90
2017-11-16T17:07:20.973Z,18.08
2017-11-16T17:09:48.472Z,19.02
2017-11-16T17:12:15.896Z,18.85
2017-11-16T17:14:43.353Z,19.62
2017-11-16T17:17:10.789Z,18.87
2017-11-16T17:19:38.258Z,18.35
2017-11-16T17:22:05.730Z,18.75
2017-11-16T17:24:33.173Z,21.35
2017-11-16T17:27:00.609Z,15.93
2017-11-16T17:29:28.046Z,19.12
2017-11-16T17:31:55.473Z,20.62
2017-11-16T17:34:22.917Z,18.80
2017-11-16T17:36:50.407Z,17.58
2017-11-16T17:39:18.012Z,18.35
2017-11-16T17:41:45.476Z,19.77
2017-11-16T17:44:12.934Z,18.90
2017-11-16T17:46:40.422Z,18.00
2017-11-16T17:49:07.854Z,18.05
2017-11-16T17:51:35.297Z,22.37
2017-11-16T17:54:02.757Z,22.05
2017-11-16T17:56:30.223Z,19.87
2017-11-16T17:58:57.648Z,20.02
2017-11-16T18:01:25.134Z,21.75
2017-11-16T18:03:53.352Z,20.10
2017-11-16T18:06:20.785Z,18.73
2017-11-16T18:08:48.272Z,18.62
2017-11-16T18:11:15.700Z,19.73
2017-11-16T18:13:43.151Z,21.73
2017-11-16T18:16:10.682Z,19.62
2017-11-16T18:18:38.220Z,22.15
2017-11-16T18:21:05.712Z,20.00
2017-11-16T18:23:33.901Z,23.92
2017-11-16T18:26:01.337Z,20.42
2017-11-16T18:28:28.849Z,21.85
2017-11-16T18:30:57.097Z,19.05
2017-11-16T18:33:24.625Z,21.02
2017-11-16T18:35:52.100Z,19.50
2017-11-16T18:38:20.293Z,18.23
2017-11-16T18:40:47.781Z,19.02
2017-11-16T18:43:15.242Z,20.27
2017-11-16T18:45:43.453Z,17.10
2017-11-16T18:48:10.899Z,17.90
2017-11-16T18:50:38.341Z,20.05
2017-11-16T18:53:05.790Z,20.45
2017-11-16T18:55:33.232Z,17.35
2017-11-16T18:58:00.676Z,16.12
2017-11-16T19:00:28.116Z,18.85
2017-11-16T19:02:55.553Z,15.75
2017-11-16T19:05:23.016Z,16.05
2017-11-16T19:07:50.453Z,17.20
2017-11-16T19:10:17.999Z,15.38
2017-11-16T19:12:45.589Z,16.52
2017-11-16T19:15:13.197Z,18.10
2017-11-16T19:17:40.638Z,17.27
2017-11-16T19:20:08.170Z,17.65
2017-11-16T19:22:35.606Z,17.20
2017-11-16T19:25:03.093Z,14.18
2017-11-16T19:27:31.438Z,17.55
2017-11-16T19:29:58.875Z,18.25
2017-11-16T19:32:26.325Z,19.05
2017-11-16T19:34:53.773Z,19.05
2017-11-16T19:37:21.201Z,18.08
2017-11-16T19:39:48.699Z,17.23
2017-11-16T19:42:16.135Z,17.08
2017-11-16T19:44:43.633Z,16.50
2017-11-16T19:47:11.829Z,17.90
2017-11-16T19:49:40.089Z,18.02
2017-11-16T19:52:08.316Z,17.60
2017-11-16T19:54:35.784Z,17.20
2017-11-16T19:57:04.033Z,18.37
2017-11-16T19:59:31.472Z,18.27
2017-11-16T20:01:58.897Z,15.73
2017-11-16T20:04:26.461Z,16.90
2017-11-16T20:06:53.925Z,15.70
2017-11-16T20:09:21.362Z,17.30
2017-11-16T20:11:49.605Z,16.05
2017-11-16T20:14:17.096Z,15.63
2017-11-16T20:16:44.689Z,19.70
2017-11-16T20:19:13.682Z,20.55
2017-11-16T20:21:41.116Z,17.95
2017-11-16T20:24:08.610Z,16.30
2017-11-16T20:26:36.070Z,17.92
2017-11-16T20:29:03.566Z,18.05
2017-11-16T20:31:31.797Z,17.73
2017-11-16T20:33:59.254Z,16.85
2017-11-16T20:36:26.702Z,17.23
2017-11-16T20:39:07.977Z,17.23
2017-11-16T20:41:41.955Z,17.70
2017-11-16T20:44:15.089Z,16.77
2017-11-16T20:46:54.194Z,16.60
2017-11-16T20:49:27.389Z,16.48
2017-11-16T20:51:57.821Z,21.42
2017-11-16T20:54:27.118Z,17.08
2017-11-16T20:56:54.561Z,17.08
2017-11-16T20:59:22.048Z,16.55
2017-11-16T21:01:49.509Z,19.90
2017-11-16T21:04:16.959Z,16.77
2017-11-16T21:06:44.410Z,17.98
2017-11-16T21:09:11.926Z,16.98
2017-11-16T21:11:39.357Z,18.05
2017-11-16T21:14:06.792Z,16.12
2017-11-16T21:16:34.231Z,17.42
2017-11-16T21:19:02.426Z,17.40
2017-11-16T21:21:29.910Z,17.60
2017-11-16T21:23:57.340Z,17.65
2017-11-16T21:26:24.782Z,17.27
2017-11-16T21:28:53.017Z,17.15
2017-11-16T21:31:20.477Z,17.95
2017-11-16T21:33:48.021Z,17.77
2017-11-16T21:36:15.540Z,18.15
2017-11-16T21:38:42.981Z,17.83
2017-11-16T21:41:10.467Z,19.08
2017-11-16T21:43:37.913Z,17.50
2017-11-16T21:46:05.445Z,19.92
2017-11-16T21:48:32.889Z,17.12
2017-11-16T21:51:01.833Z,20.42
2017-11-16T21:53:29.313Z,16.65
2017-11-16T21:55:56.756Z,15.73
2017-11-16T21:58:24.192Z,18.75
2017-11-16T22:00:51.877Z,17.73
2017-11-16T22:03:20.130Z,17.65
2017-11-16T22:05:48.356Z,18.15
2017-11-16T22:08:15.817Z,14.43
2017-11-16T22:10:43.269Z,16.92
2017-11-16T22:13:10.717Z,17.77
2017-11-16T22:15:38.910Z,16.37
2017-11-16T22:18:06.501Z,16.83
2017-11-16T22:20:34.055Z,16.77
2017-11-16T22:23:01.576Z,15.90
2017-11-16T22:25:29.029Z,15.48
2017-11-16T22:27:56.449Z,15.98
2017-11-16T22:30:23.884Z,16.17
2017-11-16T22:32:51.330Z,16.40
2017-11-16T22:35:18.775Z,15.57
2017-11-16T22:37:46.218Z,15.48
2017-11-16T22:40:13.676Z,62.05
2017-11-16T22:42:41.108Z,16.73
2017-11-16T22:45:08.545Z,22.17
2017-11-16T22:47:35.983Z,16.25
2017-11-16T22:50:03.427Z,16.67
2017-11-16T22:52:30.858Z,16.27
2017-11-16T22:54:58.346Z,16.10
2017-11-16T22:57:25.793Z,15.25
2017-11-16T22:59:53.242Z,14.85
2017-11-16T23:02:20.686Z,15.32
2017-11-16T23:04:48.130Z,14.60
2017-11-16T23:07:15.554Z,17.90
2017-11-16T23:09:43.040Z,14.50
2017-11-16T23:12:11.266Z,15.00
2017-11-16T23:14:38.752Z,17.08
2017-11-16T23:17:06.252Z,17.30
2017-11-16T23:19:33.710Z,14.87
2017-11-16T23:22:01.243Z,14.32
2017-11-16T23:24:28.679Z,15.68
2017-11-16T23:26:56.217Z,17.02
2017-11-16T23:29:23.649Z,17.35
2017-11-16T23:31:51.102Z,15.93
2017-11-16T23:34:18.534Z,15.77
2017-11-16T23:36:45.973Z,16.75
2017-11-16T23:39:13.451Z,15.45
2017-11-16T23:41:40.888Z,20.75
2017-11-16T23:44:08.338Z,18.05
2017-11-16T23:46:35.768Z,26.15
2017-11-16T23:49:03.209Z,16.20
2017-11-16T23:51:30.659Z,17.20
2017-11-16T23:53:58.864Z,16.52
2017-11-16T23:56:26.349Z,14.48
2017-11-16T23:58:53.780Z,17.08
